createdAt,value
2018-08-23T00:01:37.454Z,17.60
2018-08-23T00:04:07.581Z,17.60
2018-08-23T00:06:36.699Z,17.70
2018-08-23T00:09:07.586Z,17.60
2018-08-23T00:11:45.569Z,17.60
2018-08-23T00:14:14.549Z,17.60
2018-08-23T00:16:44.114Z,17.70
2018-08-23T00:19:12.758Z,17.60
2018-08-23T00:21:43.697Z,17.60
2018-08-23T00:24:14.637Z,17.60
2018-08-23T00:26:49.023Z,17.60
2018-08-23T00:29:33.282Z,17.70
2018-08-23T00:32:06.125Z,17.70
2018-08-23T00:34:37.429Z,17.70
2018-08-23T00:37:06.529Z,17.70
2018-08-23T00:39:35.073Z,17.80
2018-08-23T00:42:08.726Z,17.80
2018-08-23T00:45:41.016Z,17.80
2018-08-23T00:48:09.477Z,17.80
2018-08-23T00:50:56.381Z,17.80
2018-08-23T00:53:25.012Z,17.80
2018-08-23T00:56:26.085Z,17.80
2018-08-23T00:59:01.320Z,17.80
2018-08-23T01:01:30.189Z,17.80
2018-08-23T01:03:58.649Z,17.80
2018-08-23T01:06:40.036Z,17.80
2018-08-23T01:09:09.614Z,17.80
2018-08-23T01:11:38.144Z,17.70
2018-08-23T01:14:06.791Z,17.70
2018-08-23T01:16:35.306Z,17.70
2018-08-23T01:19:13.137Z,17.70
2018-08-23T01:21:52.317Z,17.70
2018-08-23T01:24:20.857Z,17.70
2018-08-23T01:26:49.307Z,17.70
2018-08-23T01:29:27.917Z,17.70
2018-08-23T01:32:06.266Z,17.70
2018-08-23T01:34:34.865Z,17.70
2018-08-23T01:37:03.443Z,17.70
2018-08-23T01:39:33.234Z,17.70
2018-08-23T01:42:01.765Z,17.70
2018-08-23T01:44:35.524Z,17.70
2018-08-23T01:47:04.029Z,17.70
2018-08-23T01:49:32.473Z,17.60
2018-08-23T01:52:00.954Z,17.60
2018-08-23T01:54:29.450Z,17.70
2018-08-23T01:56:57.903Z,17.70
2018-08-23T01:59:26.345Z,17.70
2018-08-23T02:01:54.925Z,17.70
2018-08-23T02:04:23.367Z,17.70
2018-08-23T02:06:52.202Z,17.60
2018-08-23T02:09:20.778Z,17.60
2018-08-23T02:11:49.234Z,17.60
2018-08-23T02:14:17.681Z,17.60
2018-08-23T02:16:52.143Z,17.60
2018-08-23T02:19:21.473Z,17.60
2018-08-23T02:21:50.037Z,17.60
2018-08-23T02:24:22.797Z,17.60
2018-08-23T02:26:51.293Z,17.60
2018-08-23T02:29:29.765Z,17.60
2018-08-23T02:31:58.213Z,17.60
2018-08-23T02:34:30.885Z,17.60
2018-08-23T02:36:59.344Z,17.60
2018-08-23T02:39:27.781Z,17.60
2018-08-23T02:41:56.265Z,17.60
2018-08-23T02:44:24.722Z,17.60
2018-08-23T02:46:53.177Z,17.60
2018-08-23T02:49:21.694Z,17.60
2018-08-23T02:51:51.073Z,17.60
2018-08-23T02:54:19.544Z,17.60
2018-08-23T02:56:53.117Z,17.60
2018-08-23T02:59:21.569Z,17.60
2018-08-23T03:01:50.606Z,17.60
2018-08-23T03:04:20.193Z,17.60
2018-08-23T03:06:52.561Z,17.60
2018-08-23T03:09:23.151Z,17.60
2018-08-23T03:11:52.697Z,17.60
2018-08-23T03:14:22.055Z,17.70
2018-08-23T03:17:26.552Z,17.70
2018-08-23T03:20:20.920Z,17.70
2018-08-23T03:22:50.730Z,17.70
2018-08-23T03:25:20.384Z,17.70
2018-08-23T03:27:48.813Z,17.70
2018-08-23T03:30:18.233Z,17.70
2018-08-23T03:32:46.681Z,17.70
2018-08-23T03:35:15.145Z,17.80
2018-08-23T03:37:43.616Z,17.80
2018-08-23T03:40:13.161Z,17.80
2018-08-23T03:42:41.802Z,17.80
2018-08-23T03:45:15.696Z,17.90
2018-08-23T03:47:49.243Z,17.90
2018-08-23T03:50:17.737Z,17.90
2018-08-23T03:52:49.038Z,17.90
2018-08-23T03:55:19.653Z,17.90
2018-08-23T03:58:07.550Z,17.90
2018-08-23T04:00:48.802Z,18.00
2018-08-23T04:03:19.913Z,18.00
2018-08-23T04:05:48.413Z,18.10
2018-08-23T04:08:16.903Z,18.10
2018-08-23T04:10:45.361Z,18.10
2018-08-23T04:13:13.802Z,18.10
2018-08-23T04:15:42.289Z,18.20
2018-08-23T04:18:17.014Z,18.20
2018-08-23T04:20:52.758Z,18.20
2018-08-23T04:23:21.201Z,18.20
2018-08-23T04:25:49.685Z,18.20
2018-08-23T04:28:18.158Z,18.30
2018-08-23T04:30:46.605Z,18.30
2018-08-23T04:33:15.084Z,18.30
2018-08-23T04:35:43.565Z,18.30
2018-08-23T04:38:12.009Z,18.30
2018-08-23T04:40:45.801Z,18.30
2018-08-23T04:43:14.334Z,18.40
2018-08-23T04:45:42.793Z,18.40
2018-08-23T04:48:11.297Z,18.50
2018-08-23T04:50:40.191Z,18.50
2018-08-23T04:53:08.669Z,18.50
2018-08-23T04:55:37.184Z,18.60
2018-08-23T04:58:05.905Z,18.60
2018-08-23T05:00:34.382Z,18.70
2018-08-23T05:03:02.893Z,18.70
2018-08-23T05:05:31.427Z,18.70
2018-08-23T05:07:59.909Z,18.80
2018-08-23T05:10:29.958Z,18.80
2018-08-23T05:12:58.485Z,18.90
2018-08-23T05:15:26.975Z,19.00
2018-08-23T05:17:55.538Z,19.00
2018-08-23T05:20:24.039Z,19.00
2018-08-23T05:22:57.865Z,19.10
2018-08-23T05:25:26.331Z,19.10
2018-08-23T05:28:18.082Z,19.20
2018-08-23T05:30:47.251Z,19.20
2018-08-23T05:33:20.848Z,19.20
2018-08-23T05:35:49.507Z,19.30
2018-08-23T05:38:18.794Z,19.30
2018-08-23T05:40:53.973Z,19.40
2018-08-23T05:43:22.892Z,19.50
2018-08-23T05:45:52.665Z,19.50
2018-08-23T05:48:35.425Z,19.60
2018-08-23T05:51:14.357Z,19.60
2018-08-23T05:53:45.030Z,19.70
2018-08-23T05:56:13.490Z,19.80
2018-08-23T05:58:41.923Z,19.90
2018-08-23T06:01:10.377Z,19.90
2018-08-23T06:03:39.141Z,19.90
2018-08-23T06:06:08.015Z,19.90
2018-08-23T06:08:37.495Z,20.00
2018-08-23T06:11:09.136Z,20.00
2018-08-23T06:13:37.650Z,20.00
2018-08-23T06:16:06.353Z,19.90
2018-08-23T06:18:34.853Z,20.00
2018-08-23T06:21:03.342Z,20.00
2018-08-23T06:23:41.183Z,20.10
2018-08-23T06:26:09.661Z,20.20
2018-08-23T06:28:38.126Z,20.20
2018-08-23T06:31:06.778Z,20.30
2018-08-23T06:33:41.266Z,20.40
2018-08-23T06:36:10.833Z,20.50
2018-08-23T06:38:40.357Z,20.60
2018-08-23T06:41:09.026Z,20.70
2018-08-23T06:43:37.545Z,20.80
2018-08-23T06:46:06.050Z,20.90
2018-08-23T06:48:34.495Z,20.90
2018-08-23T06:51:03.935Z,21.00
2018-08-23T06:53:48.686Z,21.10
2018-08-23T06:56:18.729Z,21.20
2018-08-23T06:58:47.303Z,21.30
2018-08-23T07:01:32.318Z,21.40
2018-08-23T07:04:10.806Z,21.50
2018-08-23T07:06:39.375Z,21.60
2018-08-23T07:09:10.689Z,21.70
2018-08-23T07:11:39.376Z,21.80
2018-08-23T07:14:19.957Z,21.90
2018-08-23T07:16:49.760Z,22.00
2018-08-23T07:19:31.612Z,22.10
2018-08-23T07:22:01.602Z,22.20
2018-08-23T07:24:45.109Z,22.30
2018-08-23T07:27:14.633Z,22.40
2018-08-23T07:29:48.261Z,22.50
2018-08-23T07:32:19.873Z,22.60
2018-08-23T07:35:03.545Z,22.70
2018-08-23T07:37:33.218Z,22.80
2018-08-23T07:40:07.011Z,22.90
2018-08-23T07:42:36.186Z,23.00
2018-08-23T07:45:05.009Z,23.10
2018-08-23T07:47:34.233Z,23.30
2018-08-23T07:50:03.073Z,23.30
2018-08-23T07:52:32.476Z,23.40
2018-08-23T07:55:04.126Z,23.50
2018-08-23T07:57:33.737Z,23.60
2018-08-23T08:00:04.275Z,23.70
2018-08-23T08:02:32.759Z,23.80
2018-08-23T08:05:01.245Z,23.90
2018-08-23T08:07:30.777Z,24.00
2018-08-23T08:10:00.582Z,24.10
2018-08-23T08:12:37.150Z,24.20
2018-08-23T08:15:08.848Z,24.20
2018-08-23T08:17:37.285Z,24.40
2018-08-23T08:20:06.987Z,24.50
2018-08-23T08:22:35.501Z,24.60
2018-08-23T08:25:19.950Z,24.70
2018-08-23T08:27:49.566Z,24.80
2018-08-23T08:30:20.982Z,24.90
2018-08-23T08:32:49.423Z,25.00
2018-08-23T08:35:19.038Z,25.10
2018-08-23T08:37:48.749Z,25.20
2018-08-23T08:40:24.403Z,25.30
2018-08-23T08:42:52.847Z,25.40
2018-08-23T08:45:21.354Z,25.50
2018-08-23T08:47:49.873Z,25.50
2018-08-23T08:50:18.390Z,25.70
2018-08-23T08:52:46.860Z,25.70
2018-08-23T08:55:16.637Z,25.80
2018-08-23T08:57:46.468Z,25.90
2018-08-23T09:00:14.933Z,26.00
2018-08-23T09:02:43.486Z,26.10
2018-08-23T09:05:12.172Z,26.20
2018-08-23T09:07:42.775Z,26.30
2018-08-23T09:13:08.118Z,26.40
2018-08-23T09:15:36.593Z,26.40
2018-08-23T09:18:05.134Z,26.60
2018-08-23T09:20:37.083Z,26.70
2018-08-23T09:23:12.993Z,26.80
2018-08-23T09:25:43.718Z,26.90
2018-08-23T09:28:12.247Z,26.90
2018-08-23T09:30:40.761Z,27.00
2018-08-23T09:33:10.477Z,27.00
2018-08-23T09:35:39.018Z,27.10
2018-08-23T09:38:11.882Z,27.10
2018-08-23T09:40:40.380Z,27.30
2018-08-23T09:43:08.942Z,27.30
2018-08-23T09:45:38.128Z,27.30
2018-08-23T09:48:06.713Z,27.30
2018-08-23T09:50:35.283Z,27.40
2018-08-23T09:53:09.297Z,27.50
2018-08-23T09:55:37.762Z,27.50
2018-08-23T09:58:06.285Z,27.60
2018-08-23T10:00:40.092Z,27.70
2018-08-23T10:03:13.889Z,27.80
2018-08-23T10:05:47.993Z,27.80
2018-08-23T10:08:22.297Z,27.80
2018-08-23T10:12:57.914Z,27.90
2018-08-23T10:15:31.562Z,27.80
2018-08-23T10:18:05.353Z,27.90
2018-08-23T10:20:43.637Z,27.90
2018-08-23T10:23:24.369Z,28.00
2018-08-23T10:25:54.850Z,28.10
2018-08-23T10:28:25.508Z,28.10
2018-08-23T10:30:54.343Z,28.20
2018-08-23T10:33:22.886Z,28.20
2018-08-23T10:35:54.557Z,28.20
2018-08-23T10:38:25.438Z,28.30
2018-08-23T10:40:58.181Z,28.40
2018-08-23T10:43:31.730Z,28.50
2018-08-23T10:46:03.137Z,28.40
2018-08-23T10:48:31.761Z,28.50
2018-08-23T10:51:00.326Z,28.50
2018-08-23T10:53:28.871Z,28.60
2018-08-23T10:55:57.338Z,28.70
2018-08-23T10:58:25.790Z,28.80
2018-08-23T11:00:54.881Z,28.70
2018-08-23T11:03:23.330Z,28.80
2018-08-23T11:05:51.993Z,28.80
2018-08-23T11:08:27.637Z,28.70
2018-08-23T11:11:01.414Z,28.70
2018-08-23T11:13:35.067Z,28.80
2018-08-23T11:16:08.821Z,28.80
2018-08-23T11:18:42.669Z,28.90
2018-08-23T11:21:13.967Z,28.90
2018-08-23T11:23:42.861Z,28.90
2018-08-23T11:26:15.538Z,28.90
2018-08-23T11:28:44.089Z,29.00
2018-08-23T11:31:16.741Z,29.00
2018-08-23T11:33:45.294Z,29.10
2018-08-23T11:36:13.857Z,29.00
2018-08-23T11:38:42.348Z,29.00
2018-08-23T11:41:10.858Z,29.00
2018-08-23T11:43:39.341Z,29.10
2018-08-23T11:46:13.537Z,29.10
2018-08-23T11:48:42.979Z,29.10
2018-08-23T11:51:12.109Z,29.10
2018-08-23T11:53:40.724Z,29.10
2018-08-23T11:56:09.420Z,29.00
2018-08-23T11:58:37.938Z,29.00
2018-08-23T12:01:12.533Z,29.10
2018-08-23T12:03:41.477Z,29.20
2018-08-23T12:06:11.285Z,29.40
2018-08-23T12:08:39.973Z,29.40
2018-08-23T12:11:08.454Z,29.50
2018-08-23T12:13:36.989Z,29.50
2018-08-23T12:16:08.220Z,29.50
2018-08-23T12:18:37.593Z,29.50
2018-08-23T12:21:06.493Z,29.50
2018-08-23T12:23:35.174Z,29.60
2018-08-23T12:26:03.683Z,29.50
2018-08-23T12:28:37.517Z,29.50
2018-08-23T12:31:06.009Z,29.60
2018-08-23T12:33:34.458Z,29.60
2018-08-23T12:36:06.061Z,29.60
2018-08-23T12:38:39.921Z,29.60
2018-08-23T12:41:13.814Z,29.60
2018-08-23T12:43:47.665Z,29.70
2018-08-23T12:46:16.677Z,29.70
2018-08-23T12:48:45.581Z,29.70
2018-08-23T12:51:14.098Z,29.70
2018-08-23T12:53:42.763Z,29.70
2018-08-23T12:56:11.233Z,29.70
2018-08-23T12:58:39.704Z,29.70
2018-08-23T13:01:08.250Z,29.80
2018-08-23T13:03:36.787Z,29.80
2018-08-23T13:06:05.229Z,29.80
2018-08-23T13:08:33.777Z,29.80
2018-08-23T13:11:02.241Z,29.80
2018-08-23T13:13:30.698Z,29.80
2018-08-23T13:15:59.202Z,29.70
2018-08-23T13:18:27.658Z,29.70
2018-08-23T13:20:56.178Z,29.70
2018-08-23T13:23:24.697Z,29.70
2018-08-23T13:25:57.113Z,29.60
2018-08-23T13:28:26.712Z,29.50
2018-08-23T13:30:55.303Z,29.40
2018-08-23T13:33:24.625Z,29.30
2018-08-23T13:35:53.110Z,29.30
2018-08-23T13:38:21.599Z,29.30
2018-08-23T13:40:50.157Z,29.20
2018-08-23T13:43:18.723Z,29.30
2018-08-23T13:45:47.161Z,29.30
2018-08-23T13:48:15.679Z,29.30
2018-08-23T13:50:44.194Z,29.40
2018-08-23T13:53:12.689Z,29.40
2018-08-23T13:55:41.142Z,29.40
2018-08-23T13:58:09.670Z,29.40
2018-08-23T14:00:38.865Z,29.40
2018-08-23T14:03:08.036Z,29.30
2018-08-23T14:05:37.032Z,29.20
2018-08-23T14:08:05.497Z,29.20
2018-08-23T14:10:34.024Z,29.10
2018-08-23T14:13:02.543Z,29.10
2018-08-23T14:15:36.349Z,29.00
2018-08-23T14:18:04.861Z,29.10
2018-08-23T14:20:33.310Z,29.10
2018-08-23T14:23:01.790Z,29.20
2018-08-23T14:25:30.290Z,29.10
2018-08-23T14:27:58.836Z,29.10
2018-08-23T14:30:27.287Z,29.10
2018-08-23T14:32:55.968Z,29.00
2018-08-23T14:35:24.457Z,28.90
2018-08-23T14:37:52.930Z,28.90
2018-08-23T14:40:21.466Z,28.90
2018-08-23T14:42:49.922Z,28.90
2018-08-23T14:45:22.642Z,28.90
2018-08-23T14:47:56.445Z,28.80
2018-08-23T14:50:24.953Z,28.80
2018-08-23T14:52:53.489Z,28.80
2018-08-23T14:55:27.326Z,28.70
2018-08-23T14:57:55.769Z,28.80
2018-08-23T15:00:24.251Z,28.80
2018-08-23T15:02:52.805Z,28.90
2018-08-23T15:05:21.273Z,28.90
2018-08-23T15:07:49.754Z,29.00
2018-08-23T15:10:18.325Z,29.00
2018-08-23T15:12:46.841Z,29.10
2018-08-23T15:15:15.358Z,29.10
2018-08-23T15:17:43.821Z,29.00
2018-08-23T15:20:12.273Z,28.90
2018-08-23T15:22:40.733Z,28.70
2018-08-23T15:25:09.310Z,28.60
2018-08-23T15:27:37.781Z,28.40
2018-08-23T15:30:06.313Z,28.30
2018-08-23T15:32:34.792Z,28.10
2018-08-23T15:35:03.265Z,27.90
2018-08-23T15:37:31.709Z,27.80
2018-08-23T15:40:00.412Z,27.80
2018-08-23T15:42:28.858Z,27.70
2018-08-23T15:44:57.305Z,27.70
2018-08-23T15:47:25.801Z,27.50
2018-08-23T15:49:54.297Z,27.40
2018-08-23T15:52:22.741Z,27.40
2018-08-23T15:54:51.299Z,27.30
2018-08-23T15:57:19.917Z,27.30
2018-08-23T15:59:48.365Z,27.30
2018-08-23T16:02:16.870Z,27.30
2018-08-23T16:04:45.357Z,27.30
2018-08-23T16:07:13.813Z,27.20
2018-08-23T16:09:42.665Z,27.20
2018-08-23T16:12:11.185Z,27.10
2018-08-23T16:14:39.646Z,27.00
2018-08-23T16:17:13.409Z,27.00
2018-08-23T16:19:47.120Z,27.00
2018-08-23T16:22:15.627Z,27.00
2018-08-23T16:24:44.083Z,27.10
2018-08-23T16:27:12.596Z,27.00
2018-08-23T16:29:45.337Z,27.00
2018-08-23T16:32:18.045Z,26.90
2018-08-23T16:34:46.537Z,26.80
2018-08-23T16:37:15.062Z,26.80
2018-08-23T16:39:43.553Z,26.70
2018-08-23T16:42:12.062Z,26.60
2018-08-23T16:44:40.561Z,26.50
2018-08-23T16:47:09.212Z,26.40
2018-08-23T16:49:38.077Z,26.30
2018-08-23T16:52:06.997Z,26.20
2018-08-23T16:54:35.678Z,25.90
2018-08-23T16:57:04.407Z,25.70
2018-08-23T16:59:32.905Z,25.50
2018-08-23T17:02:01.427Z,25.30
2018-08-23T17:04:35.224Z,25.10
2018-08-23T17:07:03.681Z,25.00
2018-08-23T17:09:32.129Z,24.80
2018-08-23T17:12:00.658Z,24.70
2018-08-23T17:14:29.141Z,24.60
2018-08-23T17:17:02.941Z,24.40
2018-08-23T17:19:31.378Z,24.30
2018-08-23T17:22:04.892Z,24.20
2018-08-23T17:24:33.635Z,24.10
2018-08-23T17:27:01.950Z,24.10
2018-08-23T17:29:30.685Z,24.00
2018-08-23T17:31:59.202Z,23.90
2018-08-23T17:34:27.818Z,23.90
2018-08-23T17:36:56.341Z,23.70
2018-08-23T17:39:25.042Z,23.60
2018-08-23T17:41:53.561Z,23.50
2018-08-23T17:44:21.989Z,23.40
2018-08-23T17:46:50.824Z,23.30
2018-08-23T17:49:19.972Z,23.20
2018-08-23T17:51:48.436Z,23.10
2018-08-23T17:54:17.197Z,23.00
2018-08-23T17:56:45.823Z,22.90
2018-08-23T17:59:14.358Z,22.80
2018-08-23T18:01:42.825Z,22.70
2018-08-23T18:04:11.471Z,22.60
2018-08-23T18:06:39.933Z,22.60
2018-08-23T18:09:10.359Z,22.50
2018-08-23T18:11:38.841Z,22.40
2018-08-23T18:14:07.561Z,22.30
2018-08-23T18:16:41.216Z,22.20
2018-08-23T18:19:09.813Z,22.10
2018-08-23T18:21:38.814Z,22.00
2018-08-23T18:24:07.318Z,22.00
2018-08-23T18:26:35.922Z,21.90
2018-08-23T18:29:04.429Z,21.80
2018-08-23T18:31:33.485Z,21.80
2018-08-23T18:34:01.986Z,21.70
2018-08-23T18:36:30.437Z,21.60
2018-08-23T18:38:58.980Z,21.60
2018-08-23T18:41:27.461Z,21.60
2018-08-23T18:43:55.909Z,21.50
2018-08-23T18:46:24.557Z,21.40
2018-08-23T18:48:57.533Z,21.40
2018-08-23T18:51:27.276Z,21.40
2018-08-23T18:53:56.359Z,21.30
2018-08-23T18:56:24.814Z,21.30
2018-08-23T18:58:53.581Z,21.30
2018-08-23T19:01:22.356Z,21.20
2018-08-23T19:03:51.228Z,21.20
2018-08-23T19:06:19.770Z,21.20
2018-08-23T19:08:50.131Z,21.10
2018-08-23T19:11:18.561Z,21.10
2018-08-23T19:13:47.088Z,21.00
2018-08-23T19:16:20.786Z,21.00
2018-08-23T19:18:49.339Z,21.00
2018-08-23T19:21:17.763Z,20.90
2018-08-23T19:23:46.238Z,20.90
2018-08-23T19:26:14.749Z,20.90
2018-08-23T19:28:43.241Z,20.80
2018-08-23T19:31:11.728Z,20.80
2018-08-23T19:33:40.246Z,20.70
2018-08-23T19:36:08.898Z,20.70
2018-08-23T19:38:37.343Z,20.70
2018-08-23T19:41:05.849Z,20.70
2018-08-23T19:43:34.343Z,20.60
2018-08-23T19:46:09.048Z,20.50
2018-08-23T19:48:37.795Z,20.50
2018-08-23T19:51:06.591Z,20.50
2018-08-23T19:53:35.133Z,20.50
2018-08-23T19:56:03.674Z,20.40
2018-08-23T19:58:32.170Z,20.30
2018-08-23T20:01:00.782Z,20.30
2018-08-23T20:03:29.280Z,20.30
2018-08-23T20:05:57.985Z,20.30
2018-08-23T20:08:27.617Z,20.20
2018-08-23T20:10:56.378Z,20.20
2018-08-23T20:13:24.843Z,20.20
2018-08-23T20:15:53.324Z,20.20
2018-08-23T20:18:21.770Z,20.20
2018-08-23T20:20:50.250Z,20.10
2018-08-23T20:23:18.737Z,20.10
2018-08-23T20:25:47.221Z,20.00
2018-08-23T20:28:15.721Z,20.00
2018-08-23T20:30:44.281Z,20.00
2018-08-23T20:33:12.962Z,20.00
2018-08-23T20:35:41.429Z,20.00
2018-08-23T20:38:09.931Z,19.90
2018-08-23T20:40:38.398Z,19.90
2018-08-23T20:43:06.869Z,19.90
2018-08-23T20:45:35.393Z,19.80
2018-08-23T20:48:03.874Z,19.80
2018-08-23T20:50:32.441Z,19.80
2018-08-23T20:53:01.614Z,19.70
2018-08-23T20:55:30.093Z,19.70
2018-08-23T20:57:58.495Z,19.70
2018-08-23T21:00:26.990Z,19.60
2018-08-23T21:02:55.407Z,19.50
2018-08-23T21:05:23.840Z,19.50
2018-08-23T21:07:52.299Z,19.50
2018-08-23T21:10:20.707Z,19.40
2018-08-23T21:12:49.168Z,19.40
2018-08-23T21:15:17.635Z,19.40
2018-08-23T21:17:46.079Z,19.30
2018-08-23T21:20:14.508Z,19.30
2018-08-23T21:22:42.945Z,19.30
2018-08-23T21:25:11.931Z,19.20
2018-08-23T21:27:40.358Z,19.20
2018-08-23T21:30:08.850Z,19.10
2018-08-23T21:32:37.267Z,19.10
2018-08-23T21:35:05.714Z,19.10
2018-08-23T21:37:34.256Z,19.10
2018-08-23T21:40:03.007Z,19.00
2018-08-23T21:42:31.482Z,19.00
2018-08-23T21:44:59.907Z,19.00
2018-08-23T21:47:28.323Z,19.00
2018-08-23T21:49:56.760Z,19.00
2018-08-23T21:52:25.214Z,18.90
2018-08-23T21:54:53.664Z,18.90
2018-08-23T21:57:22.348Z,18.80
2018-08-23T21:59:53.831Z,18.80
2018-08-23T22:02:22.403Z,18.80
2018-08-23T22:04:52.303Z,18.70
2018-08-23T22:07:20.927Z,18.70
2018-08-23T22:09:51.423Z,18.60
2018-08-23T22:12:21.199Z,18.60
2018-08-23T22:14:50.458Z,18.60
2018-08-23T22:17:19.681Z,18.50
2018-08-23T22:19:48.347Z,18.50
2018-08-23T22:22:16.939Z,18.50
2018-08-23T22:24:45.475Z,18.50
2018-08-23T22:27:13.955Z,18.50
2018-08-23T22:29:42.471Z,18.50
2018-08-23T22:32:10.953Z,18.50
2018-08-23T22:34:39.423Z,18.50
2018-08-23T22:37:07.907Z,18.40
2018-08-23T22:39:36.385Z,18.40
2018-08-23T22:42:04.895Z,18.40
2018-08-23T22:44:33.435Z,18.40
2018-08-23T22:47:01.912Z,18.40
2018-08-23T22:49:30.365Z,18.40
2018-08-23T22:51:58.847Z,18.30
2018-08-23T22:54:27.300Z,18.30
2018-08-23T22:56:55.758Z,18.30
2018-08-23T22:59:24.211Z,18.30
2018-08-23T23:01:52.770Z,18.30
2018-08-23T23:04:28.763Z,18.30
2018-08-23T23:06:58.104Z,18.30
2018-08-23T23:09:26.688Z,18.30
2018-08-23T23:11:55.235Z,18.20
2018-08-23T23:14:23.769Z,18.20
2018-08-23T23:16:54.834Z,18.20
2018-08-23T23:19:23.961Z,18.20
2018-08-23T23:21:52.451Z,18.20
2018-08-23T23:24:26.268Z,18.10
2018-08-23T23:26:55.966Z,18.10
2018-08-23T23:29:24.815Z,18.10
2018-08-23T23:31:53.339Z,18.10
2018-08-23T23:34:21.827Z,18.10
2018-08-23T23:36:50.331Z,18.10
2018-08-23T23:39:19.007Z,18.10
2018-08-23T23:41:47.559Z,18.00
2018-08-23T23:44:16.103Z,18.10
2018-08-23T23:46:44.659Z,18.00
2018-08-23T23:49:13.118Z,18.00
2018-08-23T23:51:41.754Z,18.00
2018-08-23T23:54:10.358Z,18.00
2018-08-23T23:56:38.819Z,18.00
2018-08-23T23:59:07.395Z,18.00
